createdAt,value
2018-06-15T00:00:54.910Z,8.65
2018-06-15T00:03:23.500Z,10.82
2018-06-15T00:05:53.375Z,9.48
2018-06-15T00:08:21.919Z,9.60
2018-06-15T00:10:50.660Z,10.78
2018-06-15T00:13:19.418Z,10.70
2018-06-15T00:15:48.854Z,11.65
2018-06-15T00:18:17.762Z,10.82
2018-06-15T00:20:46.359Z,11.30
2018-06-15T00:23:14.933Z,10.95
2018-06-15T00:25:44.115Z,10.78
2018-06-15T00:28:13.690Z,13.75
2018-06-15T00:30:50.018Z,10.38
2018-06-15T00:33:27.034Z,9.73
2018-06-15T00:35:58.694Z,8.90
2018-06-15T00:38:29.775Z,9.25
2018-06-15T00:40:58.284Z,9.45
2018-06-15T00:43:30.315Z,9.68
2018-06-15T00:46:05.423Z,9.38
2018-06-15T00:48:36.265Z,9.38
2018-06-15T00:51:08.765Z,8.58
2018-06-15T00:53:38.365Z,8.15
2018-06-15T00:56:09.719Z,7.50
2018-06-15T00:58:43.834Z,8.68
2018-06-15T01:01:15.357Z,7.03
2018-06-15T01:03:44.579Z,7.12
2018-06-15T01:06:13.320Z,6.65
2018-06-15T01:08:52.931Z,8.73
2018-06-15T01:11:22.728Z,7.55
2018-06-15T01:13:52.061Z,7.20
2018-06-15T01:16:22.242Z,7.20
2018-06-15T01:18:51.801Z,8.00
2018-06-15T01:21:23.063Z,7.45
2018-06-15T01:23:53.210Z,7.78
2018-06-15T01:26:21.817Z,7.25
2018-06-15T01:28:51.025Z,9.53
2018-06-15T01:31:20.536Z,7.55
2018-06-15T01:33:49.093Z,8.48
2018-06-15T01:36:17.651Z,7.78
2018-06-15T01:38:48.211Z,7.75
2018-06-15T01:41:16.800Z,8.13
2018-06-15T01:43:46.028Z,8.15
2018-06-15T01:46:15.706Z,8.93
2018-06-15T01:48:44.553Z,8.40
2018-06-15T01:51:15.310Z,8.05
2018-06-15T01:53:45.046Z,7.78
2018-06-15T01:56:14.590Z,8.90
2018-06-15T01:58:43.804Z,8.25
2018-06-15T02:01:13.314Z,11.38
2018-06-15T02:03:44.469Z,9.98
2018-06-15T02:06:24.949Z,10.08
2018-06-15T02:08:53.814Z,9.58
2018-06-15T02:11:23.976Z,9.63
2018-06-15T02:13:53.534Z,10.38
2018-06-15T02:16:23.047Z,10.85
2018-06-15T02:18:51.640Z,12.55
2018-06-15T02:21:22.258Z,9.55
2018-06-15T02:23:50.899Z,11.05
2018-06-15T02:26:20.231Z,10.05
2018-06-15T02:28:48.905Z,10.13
2018-06-15T02:31:18.691Z,11.25
2018-06-15T02:33:51.006Z,10.32
2018-06-15T02:36:19.594Z,12.05
2018-06-15T02:38:48.133Z,10.08
2018-06-15T02:41:16.786Z,11.95
2018-06-15T02:43:45.724Z,11.38
2018-06-15T02:46:14.300Z,13.18
2018-06-15T02:48:43.820Z,11.80
2018-06-15T02:51:12.567Z,13.10
2018-06-15T02:56:47.700Z,13.10
2018-06-15T02:59:16.935Z,11.43
2018-06-15T03:01:45.551Z,12.07
2018-06-15T03:04:15.393Z,11.83
2018-06-15T03:06:45.535Z,12.93
2018-06-15T03:09:15.975Z,13.05
2018-06-15T03:11:44.929Z,12.68
2018-06-15T03:14:15.236Z,13.43
2018-06-15T03:16:44.103Z,12.93
2018-06-15T03:19:15.650Z,12.85
2018-06-15T03:21:46.291Z,13.30
2018-06-15T03:24:15.454Z,13.88
2018-06-15T03:26:44.702Z,13.03
2018-06-15T03:29:13.652Z,13.78
2018-06-15T03:31:43.878Z,12.82
2018-06-15T03:34:13.241Z,11.90
2018-06-15T03:36:43.540Z,13.28
2018-06-15T03:39:13.365Z,12.47
2018-06-15T03:41:44.573Z,13.65
2018-06-15T03:44:14.392Z,12.65
2018-06-15T03:46:43.665Z,11.90
2018-06-15T03:49:21.307Z,12.45
2018-06-15T03:51:50.401Z,11.85
2018-06-15T03:54:19.974Z,14.07
2018-06-15T03:56:49.197Z,12.33
2018-06-15T03:59:17.903Z,11.68
2018-06-15T04:01:46.485Z,10.88
2018-06-15T04:04:16.448Z,13.30
2018-06-15T04:06:45.318Z,11.15
2018-06-15T04:09:36.846Z,12.10
2018-06-15T04:12:17.168Z,11.45
2018-06-15T04:14:45.722Z,13.53
2018-06-15T04:17:14.587Z,12.33
2018-06-15T04:19:46.957Z,11.55
2018-06-15T04:22:17.692Z,12.28
2018-06-15T04:24:47.548Z,12.05
2018-06-15T04:27:26.181Z,11.75
2018-06-15T04:29:55.320Z,13.05
2018-06-15T04:32:25.172Z,13.40
2018-06-15T04:34:55.477Z,11.48
2018-06-15T04:37:24.333Z,12.82
2018-06-15T04:39:54.597Z,12.47
2018-06-15T04:42:24.176Z,12.70
2018-06-15T04:44:53.756Z,11.38
2018-06-15T04:47:22.649Z,13.15
2018-06-15T04:49:51.358Z,12.53
2018-06-15T04:52:22.168Z,11.33
2018-06-15T04:54:54.199Z,13.80
2018-06-15T04:57:23.877Z,13.40
2018-06-15T04:59:53.461Z,14.45
2018-06-15T05:02:22.513Z,12.95
2018-06-15T05:04:51.309Z,17.07
2018-06-15T05:07:20.247Z,15.50
2018-06-15T05:09:49.516Z,12.95
2018-06-15T05:12:18.439Z,16.65
2018-06-15T05:14:47.704Z,13.90
2018-06-15T05:17:16.625Z,16.30
2018-06-15T05:19:45.048Z,16.50
2018-06-15T05:22:13.829Z,16.32
2018-06-15T05:24:44.746Z,15.00
2018-06-15T05:27:13.493Z,13.62
2018-06-15T05:29:43.587Z,14.95
2018-06-15T05:32:14.186Z,15.32
2018-06-15T05:34:44.722Z,16.05
2018-06-15T05:37:14.621Z,16.82
2018-06-15T05:39:43.868Z,15.80
2018-06-15T05:42:13.811Z,16.62
2018-06-15T05:44:46.921Z,17.32
2018-06-15T05:47:16.247Z,15.95
2018-06-15T05:49:44.682Z,17.77
2018-06-15T05:52:14.295Z,16.95
2018-06-15T05:54:44.878Z,15.35
2018-06-15T05:57:13.438Z,17.82
2018-06-15T05:59:44.241Z,19.62
2018-06-15T06:02:13.084Z,19.10
2018-06-15T06:04:43.199Z,18.92
2018-06-15T06:07:11.945Z,19.95
2018-06-15T06:09:44.147Z,19.20
2018-06-15T06:12:16.819Z,19.62
2018-06-15T06:14:45.767Z,18.00
2018-06-15T06:17:14.767Z,18.10
2018-06-15T06:19:43.960Z,21.55
2018-06-15T06:22:13.580Z,19.50
2018-06-15T06:24:42.427Z,19.95
2018-06-15T06:27:13.521Z,19.75
2018-06-15T06:29:47.082Z,21.10
2018-06-15T06:35:11.370Z,19.07
2018-06-15T06:37:40.648Z,19.45
2018-06-15T06:40:09.220Z,21.57
2018-06-15T06:42:37.886Z,24.15
2018-06-15T06:45:06.951Z,21.12
2018-06-15T06:47:35.636Z,23.62
2018-06-15T06:50:04.671Z,22.13
2018-06-15T06:52:33.715Z,24.18
2018-06-15T06:55:02.414Z,22.37
2018-06-15T06:57:31.151Z,22.48
2018-06-15T07:00:00.211Z,23.12
2018-06-15T07:02:28.810Z,25.05
2018-06-15T07:07:53.205Z,23.60
2018-06-15T07:10:21.775Z,21.35
2018-06-15T07:12:50.393Z,22.20
2018-06-15T07:15:19.341Z,22.77
2018-06-15T07:17:47.906Z,21.85
2018-06-15T07:20:16.939Z,26.02
2018-06-15T07:22:45.976Z,23.55
2018-06-15T07:25:15.551Z,22.85
2018-06-15T07:27:44.410Z,25.55
2018-06-15T07:30:13.047Z,20.35
2018-06-15T07:32:41.697Z,24.07
2018-06-15T07:35:10.224Z,19.02
2018-06-15T07:37:39.464Z,21.35
2018-06-15T07:40:07.924Z,19.10
2018-06-15T07:42:36.473Z,19.02
2018-06-15T07:45:05.054Z,22.32
2018-06-15T07:47:33.600Z,19.57
2018-06-15T07:50:02.308Z,18.98
2018-06-15T07:52:30.824Z,20.52
2018-06-15T07:54:59.344Z,17.85
2018-06-15T07:57:28.069Z,15.75
2018-06-15T07:59:56.649Z,15.50
2018-06-15T08:02:25.159Z,14.20
2018-06-15T08:07:42.687Z,14.50
2018-06-15T08:10:11.257Z,12.05
2018-06-15T08:12:40.672Z,14.13
2018-06-15T08:15:09.179Z,13.62
2018-06-15T08:17:37.871Z,15.90
2018-06-15T08:20:06.426Z,15.98
2018-06-15T08:22:35.877Z,16.73
2018-06-15T08:25:04.978Z,13.65
2018-06-15T08:27:33.568Z,14.53
2018-06-15T08:30:02.122Z,16.05
2018-06-15T08:32:31.114Z,14.60
2018-06-15T08:34:59.902Z,15.15
2018-06-15T08:37:28.480Z,15.78
2018-06-15T08:39:56.972Z,17.92
2018-06-15T08:42:25.541Z,14.43
2018-06-15T08:45:09.644Z,14.25
2018-06-15T08:47:41.525Z,13.75
2018-06-15T08:50:13.110Z,13.85
2018-06-15T08:52:41.748Z,15.18
2018-06-15T08:55:11.909Z,14.93
2018-06-15T08:57:45.334Z,14.00
2018-06-15T09:00:14.785Z,13.03
2018-06-15T09:02:45.474Z,14.23
2018-06-15T09:05:15.258Z,12.13
2018-06-15T09:07:46.589Z,13.10
2018-06-15T09:10:16.037Z,12.82
2018-06-15T09:12:44.761Z,13.68
2018-06-15T09:15:15.642Z,14.00
2018-06-15T09:20:19.497Z,12.03
2018-06-15T09:22:48.707Z,12.50
2018-06-15T09:25:17.386Z,12.20
2018-06-15T09:27:45.932Z,11.50
2018-06-15T09:30:14.640Z,11.30
2018-06-15T09:32:43.350Z,11.65
2018-06-15T09:35:15.903Z,11.40
2018-06-15T09:37:44.541Z,11.57
2018-06-15T09:40:13.192Z,12.58
2018-06-15T09:42:42.389Z,10.72
2018-06-15T09:45:11.258Z,11.00
2018-06-15T09:47:42.363Z,10.40
2018-06-15T09:52:52.682Z,9.83
2018-06-15T09:55:21.763Z,8.68
2018-06-15T09:57:51.044Z,8.80
2018-06-15T10:00:24.906Z,9.40
2018-06-15T10:02:57.784Z,8.33
2018-06-15T10:05:26.450Z,9.00
2018-06-15T10:07:55.875Z,8.80
2018-06-15T10:10:24.466Z,8.53
2018-06-15T10:12:55.039Z,8.25
2018-06-15T10:15:23.804Z,7.80
2018-06-15T10:17:52.501Z,7.90
2018-06-15T10:20:23.686Z,7.70
2018-06-15T10:22:53.063Z,7.78
2018-06-15T10:25:22.884Z,6.72
2018-06-15T10:27:51.780Z,6.97
2018-06-15T10:30:20.483Z,6.85
2018-06-15T10:32:49.198Z,6.25
2018-06-15T10:35:17.821Z,6.25
2018-06-15T10:37:46.596Z,6.92
2018-06-15T10:40:15.301Z,7.40
2018-06-15T10:42:44.169Z,6.30
2018-06-15T10:45:13.106Z,6.30
2018-06-15T10:47:41.987Z,6.22
2018-06-15T10:50:12.364Z,6.12
2018-06-15T10:52:42.062Z,5.37
2018-06-15T10:55:12.640Z,6.75
2018-06-15T10:57:42.452Z,5.65
2018-06-15T11:00:12.665Z,5.12
2018-06-15T11:02:43.147Z,4.78
2018-06-15T11:05:13.988Z,5.03
2018-06-15T11:07:44.613Z,4.97
2018-06-15T11:10:15.575Z,5.35
2018-06-15T11:12:46.189Z,4.78
2018-06-15T11:15:16.601Z,5.08
2018-06-15T11:17:46.086Z,4.80
2018-06-15T11:20:15.525Z,4.30
2018-06-15T11:22:44.043Z,4.62
2018-06-15T11:25:12.820Z,4.30
2018-06-15T11:27:43.093Z,4.70
2018-06-15T11:30:27.828Z,4.20
2018-06-15T11:32:59.531Z,4.35
2018-06-15T11:35:28.186Z,4.55
2018-06-15T11:37:57.035Z,4.33
2018-06-15T11:40:26.701Z,4.15
2018-06-15T11:42:55.328Z,4.60
2018-06-15T11:45:25.073Z,4.20
2018-06-15T11:47:54.094Z,4.70
2018-06-15T11:50:24.780Z,4.00
2018-06-15T11:52:53.881Z,3.47
2018-06-15T11:55:22.438Z,3.20
2018-06-15T11:57:51.464Z,3.12
2018-06-15T12:00:20.289Z,3.47
2018-06-15T12:02:48.910Z,3.35
2018-06-15T12:05:17.638Z,3.47
2018-06-15T12:07:47.109Z,3.47
2018-06-15T12:10:18.273Z,3.02
2018-06-15T12:12:47.201Z,3.60
2018-06-15T12:15:17.653Z,3.75
2018-06-15T12:17:47.322Z,3.83
2018-06-15T12:20:17.618Z,3.52
2018-06-15T12:22:47.192Z,3.40
2018-06-15T12:25:17.591Z,3.33
2018-06-15T12:27:46.356Z,3.47
2018-06-15T12:30:17.276Z,3.60
2018-06-15T12:32:45.878Z,4.55
2018-06-15T12:35:15.704Z,4.78
2018-06-15T12:37:44.234Z,3.50
2018-06-15T12:40:18.012Z,3.02
2018-06-15T12:42:46.684Z,4.17
2018-06-15T12:45:15.188Z,3.77
2018-06-15T12:47:44.132Z,4.95
2018-06-15T12:50:12.635Z,4.78
2018-06-15T12:52:41.293Z,5.03
2018-06-15T12:55:09.788Z,4.00
2018-06-15T12:57:38.833Z,5.47
2018-06-15T13:00:08.134Z,4.92
2018-06-15T13:02:36.885Z,4.37
2018-06-15T13:05:05.448Z,4.35
2018-06-15T13:09:42.883Z,4.33
2018-06-15T13:12:11.215Z,3.72
2018-06-15T13:14:40.009Z,3.87
2018-06-15T13:17:13.025Z,5.20
2018-06-15T13:19:45.835Z,5.42
2018-06-15T13:22:15.356Z,4.10
2018-06-15T13:24:44.179Z,3.20
2018-06-15T13:27:13.940Z,3.10
2018-06-15T13:29:45.499Z,3.10
2018-06-15T13:35:13.211Z,3.58
2018-06-15T13:37:43.172Z,3.00
2018-06-15T13:40:12.476Z,5.03
2018-06-15T13:42:48.159Z,3.30
2018-06-15T13:45:17.169Z,3.72
2018-06-15T13:47:45.808Z,7.60
2018-06-15T13:50:14.435Z,5.40
2018-06-15T13:52:43.844Z,4.20
2018-06-15T13:55:13.001Z,3.75
2018-06-15T13:57:43.044Z,3.40
2018-06-15T14:00:12.193Z,3.30
2018-06-15T14:02:42.385Z,3.30
2018-06-15T14:05:16.916Z,3.25
2018-06-15T14:07:45.565Z,3.40
2018-06-15T14:10:18.540Z,4.35
2018-06-15T14:12:49.614Z,4.87
2018-06-15T14:15:19.653Z,5.35
2018-06-15T14:17:51.292Z,3.30
2018-06-15T14:20:22.935Z,3.95
2018-06-15T14:22:51.991Z,2.87
2018-06-15T14:25:22.173Z,3.55
2018-06-15T14:27:52.475Z,2.85
2018-06-15T14:30:22.629Z,3.37
2018-06-15T14:32:53.330Z,2.62
2018-06-15T14:35:23.662Z,3.00
2018-06-15T14:37:54.435Z,3.95
2018-06-15T14:40:26.325Z,3.08
2018-06-15T14:42:55.792Z,4.92
2018-06-15T14:45:26.980Z,3.50
2018-06-15T14:47:57.258Z,3.27
2018-06-15T14:50:25.857Z,3.20
2018-06-15T14:53:01.928Z,3.92
2018-06-15T14:55:34.777Z,2.87
2018-06-15T14:58:09.922Z,3.33
2018-06-15T15:00:46.714Z,3.20
2018-06-15T15:03:21.025Z,3.37
2018-06-15T15:05:52.173Z,2.85
2018-06-15T15:08:23.043Z,3.42
2018-06-15T15:10:51.931Z,3.35
2018-06-15T15:13:23.227Z,3.00
2018-06-15T15:15:53.669Z,3.08
2018-06-15T15:18:22.726Z,3.10
2018-06-15T15:20:52.786Z,2.98
2018-06-15T15:23:22.827Z,3.10
2018-06-15T15:25:52.297Z,2.95
2018-06-15T15:28:23.924Z,3.00
2018-06-15T15:30:54.694Z,2.65
2018-06-15T15:33:24.635Z,3.10
2018-06-15T15:35:54.436Z,3.27
2018-06-15T15:38:22.976Z,3.12
2018-06-15T15:40:52.919Z,2.98
2018-06-15T15:43:24.064Z,2.83
2018-06-15T15:45:54.101Z,2.98
2018-06-15T15:48:24.232Z,2.50
2018-06-15T15:50:52.991Z,2.83
2018-06-15T15:53:23.161Z,3.20
2018-06-15T15:55:52.233Z,2.72
2018-06-15T15:58:22.286Z,2.98
2018-06-15T16:00:52.994Z,2.95
2018-06-15T16:03:22.140Z,2.80
2018-06-15T16:05:50.799Z,3.25
2018-06-15T16:08:20.458Z,2.80
2018-06-15T16:10:49.476Z,3.00
2018-06-15T16:13:18.244Z,2.95
2018-06-15T16:15:48.948Z,2.52
2018-06-15T16:18:18.305Z,2.70
2018-06-15T16:20:47.044Z,2.62
2018-06-15T16:23:15.788Z,3.05
2018-06-15T16:25:44.793Z,3.12
2018-06-15T16:28:13.191Z,2.80
2018-06-15T16:30:45.122Z,2.80
2018-06-15T16:33:13.829Z,2.77
2018-06-15T16:35:42.849Z,2.80
2018-06-15T16:38:13.779Z,2.83
2018-06-15T16:40:44.478Z,2.80
2018-06-15T16:43:14.173Z,3.15
2018-06-15T16:45:43.517Z,2.70
2018-06-15T16:48:14.319Z,2.80
2018-06-15T16:50:43.311Z,2.65
2018-06-15T16:53:18.683Z,2.92
2018-06-15T16:55:50.575Z,3.20
2018-06-15T16:58:21.895Z,3.05
2018-06-15T17:00:55.399Z,3.05
2018-06-15T17:03:25.238Z,3.08
2018-06-15T17:05:54.680Z,2.87
2018-06-15T17:08:25.050Z,2.87
2018-06-15T17:10:54.859Z,2.77
2018-06-15T17:13:26.124Z,2.75
2018-06-15T17:15:57.255Z,3.20
2018-06-15T17:18:27.385Z,3.10
2018-06-15T17:20:56.381Z,2.75
2018-06-15T17:23:27.044Z,3.65
2018-06-15T17:25:57.760Z,3.00
2018-06-15T17:28:29.126Z,3.20
2018-06-15T17:30:58.355Z,3.17
2018-06-15T17:33:27.092Z,7.55
2018-06-15T17:35:55.632Z,3.67
2018-06-15T17:38:24.325Z,3.08
2018-06-15T17:40:53.434Z,3.00
2018-06-15T17:43:21.974Z,2.90
2018-06-15T17:45:50.656Z,2.75
2018-06-15T17:48:19.172Z,3.35
2018-06-15T17:50:47.984Z,3.90
2018-06-15T17:53:16.611Z,3.75
2018-06-15T17:55:45.134Z,3.35
2018-06-15T17:58:13.668Z,3.30
2018-06-15T18:00:42.320Z,2.77
2018-06-15T18:03:13.542Z,3.00
2018-06-15T18:05:42.348Z,3.10
2018-06-15T18:08:11.486Z,3.62
2018-06-15T18:10:42.046Z,3.30
2018-06-15T18:13:12.985Z,3.17
2018-06-15T18:15:41.682Z,2.60
2018-06-15T18:18:10.421Z,2.77
2018-06-15T18:20:40.295Z,3.17
2018-06-15T18:23:09.138Z,2.62
2018-06-15T18:25:40.045Z,3.40
2018-06-15T18:28:08.965Z,2.92
2018-06-15T18:30:38.900Z,3.40
2018-06-15T18:33:08.913Z,3.20
2018-06-15T18:35:39.610Z,3.02
2018-06-15T18:38:13.054Z,2.80
2018-06-15T18:40:43.753Z,3.05
2018-06-15T18:43:13.640Z,3.22
2018-06-15T18:45:43.641Z,3.00
2018-06-15T18:48:13.972Z,2.90
2018-06-15T18:50:43.589Z,2.85
2018-06-15T18:53:13.910Z,3.45
2018-06-15T18:55:42.536Z,3.35
2018-06-15T18:58:12.921Z,4.15
2018-06-15T19:00:43.718Z,3.10
2018-06-15T19:03:15.325Z,3.20
2018-06-15T19:05:45.108Z,3.33
2018-06-15T19:08:15.389Z,3.40
2018-06-15T19:10:45.417Z,3.37
2018-06-15T19:13:14.006Z,5.05
2018-06-15T19:15:44.454Z,4.83
2018-06-15T19:18:12.991Z,4.22
2018-06-15T19:20:42.618Z,4.83
2018-06-15T19:23:12.465Z,3.75
2018-06-15T19:25:42.722Z,2.87
2018-06-15T19:28:17.249Z,2.80
2018-06-15T19:30:45.966Z,3.95
2018-06-15T19:33:14.574Z,4.25
2018-06-15T19:35:45.724Z,2.77
2018-06-15T19:38:14.598Z,3.02
2018-06-15T19:40:45.497Z,3.02
2018-06-15T19:43:17.822Z,2.90
2018-06-15T19:45:46.594Z,2.70
2018-06-15T19:48:15.157Z,3.27
2018-06-15T19:50:44.733Z,3.02
2018-06-15T19:53:12.958Z,2.75
2018-06-15T19:55:41.876Z,2.70
2018-06-15T19:58:11.345Z,3.10
2018-06-15T20:00:41.866Z,3.15
2018-06-15T20:03:15.620Z,2.60
2018-06-15T20:05:46.001Z,3.45
2018-06-15T20:08:14.685Z,3.42
2018-06-15T20:10:45.874Z,3.22
2018-06-15T20:13:14.491Z,2.72
2018-06-15T20:15:43.463Z,3.80
2018-06-15T20:18:12.040Z,3.10
2018-06-15T20:20:44.170Z,3.37
2018-06-15T20:23:14.487Z,3.37
2018-06-15T20:25:43.645Z,3.72
2018-06-15T20:28:13.401Z,3.02
2018-06-15T20:30:42.122Z,2.67
2018-06-15T20:33:11.908Z,2.70
2018-06-15T20:35:44.470Z,2.70
2018-06-15T20:38:13.234Z,2.58
2018-06-15T20:40:42.437Z,2.40
2018-06-15T20:43:12.457Z,3.65
2018-06-15T20:45:44.510Z,2.75
2018-06-15T20:48:22.041Z,2.77
2018-06-15T20:50:50.629Z,2.85
2018-06-15T20:53:19.292Z,2.95
2018-06-15T20:55:47.540Z,2.98
2018-06-15T20:58:19.825Z,2.70
2018-06-15T21:00:48.578Z,2.52
2018-06-15T21:03:19.862Z,3.15
2018-06-15T21:05:49.578Z,3.77
2018-06-15T21:08:18.131Z,2.58
2018-06-15T21:10:46.756Z,2.65
2018-06-15T21:13:15.352Z,2.62
2018-06-15T21:15:44.098Z,2.62
2018-06-15T21:18:15.521Z,3.77
2018-06-15T21:20:45.931Z,3.02
2018-06-15T21:23:16.091Z,3.37
2018-06-15T21:25:46.044Z,2.62
2018-06-15T21:28:16.790Z,3.27
2018-06-15T21:30:46.245Z,2.75
2018-06-15T21:33:14.964Z,2.80
2018-06-15T21:35:46.108Z,3.10
2018-06-15T21:38:15.639Z,2.85
2018-06-15T21:40:44.400Z,3.52
2018-06-15T21:43:13.074Z,2.85
2018-06-15T21:45:45.360Z,2.75
2018-06-15T21:48:14.116Z,3.00
2018-06-15T21:50:44.367Z,3.27
2018-06-15T21:53:13.238Z,3.45
2018-06-15T21:55:42.298Z,3.00
2018-06-15T21:58:12.185Z,2.65
2018-06-15T22:00:42.033Z,3.85
2018-06-15T22:03:17.027Z,3.50
2018-06-15T22:05:45.909Z,3.45
2018-06-15T22:08:15.065Z,6.53
2018-06-15T22:10:44.276Z,2.83
2018-06-15T22:13:14.408Z,3.50
2018-06-15T22:15:43.217Z,3.33
2018-06-15T22:18:13.352Z,3.12
2018-06-15T22:20:47.199Z,3.08
2018-06-15T22:23:18.366Z,3.45
2018-06-15T22:25:52.376Z,3.47
2018-06-15T22:28:21.094Z,6.30
2018-06-15T22:30:49.648Z,3.50
2018-06-15T22:33:18.338Z,3.30
2018-06-15T22:35:46.989Z,3.62
2018-06-15T22:38:16.580Z,4.17
2018-06-15T22:40:45.872Z,3.52
2018-06-15T22:43:15.247Z,3.37
2018-06-15T22:45:48.519Z,3.62
2018-06-15T22:48:19.022Z,3.75
2018-06-15T22:50:48.721Z,3.55
2018-06-15T22:53:17.391Z,3.70
2018-06-15T22:55:47.463Z,3.47
2018-06-15T22:58:17.208Z,3.47
2018-06-15T23:00:51.557Z,4.22
2018-06-15T23:03:21.301Z,3.80
2018-06-15T23:05:49.953Z,3.27
2018-06-15T23:08:19.433Z,3.25
2018-06-15T23:10:48.285Z,4.00
2018-06-15T23:13:17.363Z,3.65
2018-06-15T23:15:46.313Z,3.87
2018-06-15T23:18:15.272Z,3.92
2018-06-15T23:20:43.923Z,4.35
2018-06-15T23:23:12.642Z,3.55
2018-06-15T23:25:59.755Z,4.10
2018-06-15T23:28:33.421Z,4.20
2018-06-15T23:33:41.166Z,4.10
2018-06-15T23:36:14.959Z,4.33
2018-06-15T23:38:44.748Z,4.22
2018-06-15T23:41:20.815Z,4.08
2018-06-15T23:43:50.455Z,4.97
2018-06-15T23:49:17.791Z,4.67
2018-06-15T23:51:46.282Z,4.78
2018-06-15T23:54:15.004Z,5.42
2018-06-15T23:56:43.548Z,6.25
2018-06-15T23:59:12.045Z,4.50
